Alexander Ruidiaz

Olheiro-Chefe - Juan Aurich
20 Fev 2028
Domingo
Processo

Personalidade

Adaptabilidade (1) Ambição (8) Controvérsia (11) Lealdade (10) Pressão (4) Profissionalismo (19) Espírito Esportivo (14) Temperamento (11)

Perfil

Estilo de Treinamento Democrático
Licença Nacional B
Determinação 11
Gestão de Pessoas 8
Motivação 7
Disciplina 9
Satisfação no Trabalho
100%
Fadiga
0%
Função Olheiro-Chefe
Salário 32.7K p/s
Contrato 14.03.2028

Desempenho

Comportamento Bom
Eficácia do Treinamento
43%
Desenvolvimento do Jogador
20%
Prevenção de Lesões
25%
Implementação Tática
35%

Eventos Recentes

Participou de uma reunião de recrutamento agora
Participou de uma reunião de recrutamento agora
Negociação de contrato iniciada agora
Avaliou um jogador agora
Negociação de contrato iniciada agora
Negociação de contrato iniciada agora
Avaliou um jogador agora
Negociação de contrato iniciada agora

Monitorando agora

212
Jogador Clube Status Habilidade Confiança Observado Última observação Último voto
Martín Arenas Spartak 1918 Ativo 92 / 96 40% 2 19.02.2028 -
Martin Sekulić Ural Ativo 108 / 116 40% 5 19.02.2028 -
Carlos Torres Orenburg Ativo 96 / 110 40% 2 19.02.2028 -
Andrés Dieppa Metalurh Zaporizhzhia Ativo 98 / 102 40% 2 17.02.2028 -
Nathan Ordaz Metalist Ativo 113 / 106 40% 2 17.02.2028 -
Juan Brunetta FC Copenhagen Ativo 138 / 132 40% 1 15.02.2028 -
Franco Ayunta Kudrivka Ativo 114 / 101 40% 1 15.02.2028 -
Ronan Hale Gillingham Ativo 106 / 113 40% 4 14.02.2028 -
Aaron Collins Milton Keynes Dons Ativo 125 / 119 40% 3 14.02.2028 -
Mees Rijks Bristol Rovers Ativo 119 / 110 40% 4 14.02.2028 -
Uriel Antuna Zaragoza Ativo 134 / 153 40% 2 13.02.2028 -
Carlos Fernández Oviedo Ativo 132 / 128 40% 1 13.02.2028 -
Jesús Amarilla Naftan Ativo 101 / 107 40% 2 11.02.2028 -
Bradley Fink Wycombe Wanderers Ativo 120 / 101 40% 5 11.02.2028 -
Roger Brugué Levante Ativo 125 / 127 40% 1 11.02.2028 -
Alejo Cruz Juventud Ativo 124 / 123 40% 5 10.02.2028 Observar
Bautista Tomatis Racing Ativo 112 / 113 40% 2 10.02.2028 -
Santiago Ramírez Deportivo Maldonado Ativo 99 / 96 40% 2 10.02.2028 -
Federico Martínez Liverpool Montevideo Ativo 112 / 113 40% 5 09.02.2028 -
Emiliano Mozzone Deportivo Maldonado Ativo 101 / 100 40% 1 09.02.2028 -
Pablo López Tacuarembo Ativo 105 / 92 40% 1 09.02.2028 -
Ignacio Yepez Cerrito Ativo 107 / 116 40% 2 08.02.2028 -
Lucas Carrizo Plaza Colonia Ativo 112 / 119 40% 3 08.02.2028 -
Luciano Gondou CSKA Moscow Ativo 131 / 120 40% 1 07.02.2028 -
Juan Rocca Gimnasia y Tiro Ativo 117 / 100 40% 5 07.01.2028 -
Richard Figueroa Deportivo Lara Ativo 110 / 100 40% 5 07.01.2028 -
Luca Franco Arsenal Ativo 107 / 115 40% 6 07.01.2028 -
Jhoao Rodríguez Deportes Quindio Ativo 106 / 120 40% 1 06.01.2028 -
Tiziano Dornell Danubio Ativo 109 / 130 40% 2 03.01.2028 -
Emiliano Saliadarre Miramar Misiones Ativo 117 / 107 40% 2 03.01.2028 -
Rodrigo Bogarín Barracas Central Ativo 117 / 117 40% 3 03.01.2028 -
Jefry Zapata Danubio Ativo 124 / 127 40% 5 28.12.2027 -
Antony Alonso Deportivo Riestra Ativo 125 / 121 40% 2 15.12.2027 -
Luca Martínez Dupuy Godoy Cruz Ativo 125 / 129 40% 1 15.12.2027 -
Brayan Aragón Universitario Ativo 100 / 84 69% 1 07.12.2027 Aprovar
Jonathan Cañete Portuguesa Ativo 109 / 101 40% 5 02.12.2027 -
Maclyn Biokpo Jenewari Rivers United Ativo 106 / 115 40% 5 02.12.2027 -
Chineme Chinonso Ikorodu City Ativo 87 / 82 40% 3 02.12.2027 -
Santiago Gálvez UTC Negociando 95 / 95 69% 1 02.12.2027 Aprovar
Eric Ramírez Llaneros Ativo 121 / 120 40% 6 27.11.2027 -
Fernando Mimbacas Juventud Ativo 118 / 122 40% 3 27.11.2027 -
Leandro Suhr Boston River Ativo 114 / 109 40% 4 26.11.2027 -
Richard Celis Zamora Ativo 106 / 117 40% 5 23.11.2027 -
Kevin Méndez Dinamo Tbilisi Ativo 108 / 113 40% 12 23.11.2027 -
Alexander Díaz Deportivo Riestra Ativo 130 / 129 40% 1 22.11.2027 -
Facundo Castelli Estudiantes Ativo 126 / 118 40% 4 21.11.2027 -
Samuel Anakwe Remo Stars Ativo 107 / 92 40% 3 21.11.2027 -
Luciano Inverso Rentistas Ativo 117 / 113 40% 1 19.11.2027 -
Gianluca Pugliese Güemes Ativo 110 / 109 40% 7 17.11.2027 -
Adalberto Peñaranda Deportivo Tachira Ativo 120 / 122 40% 3 17.11.2027 -
Santiago Sala Güemes Ativo 114 / 112 40% 5 13.11.2027 -
Sebastián Cocimano Nueva Chicago Ativo 115 / 113 40% 3 12.11.2027 -
Luciano Cosentino Wanderers Ativo 132 / 115 40% 3 11.11.2027 -
Sunday Megwo Abia Warriors Ativo 92 / 88 40% 3 03.11.2027 -
Agustín Módica Gimnasia y Esgrima Ativo 119 / 114 40% 1 03.11.2027 -
Jhonatan Candia Barracas Central Ativo 120 / 119 40% 3 30.10.2027 -
Marco Bustillo Zamora Ativo 110 / 92 40% 6 29.10.2027 -
Lucas Pedraza Defensores Unidos Ativo 99 / 95 40% 1 28.10.2027 -
Agustín Occhiato Katsina United Ativo 103 / 101 40% 2 25.10.2027 -
Timothy Zechariah Rivers United Ativo 108 / 103 40% 1 19.10.2027 -
Juan Mendoza Güemes Ativo 102 / 105 40% 2 14.10.2027 -
Javier Martínez Almirante Brown Ativo 111 / 119 40% 1 12.10.2027 -
Shuaibu Ibrahim Wikki Tourists Ativo 98 / 72 40% 2 09.10.2027 -
Ivo Costantino Rentistas Ativo 116 / 110 40% 2 08.10.2027 -
Adama Goïta Remo Stars Ativo 103 / 118 40% 1 08.10.2027 -
Enzo Cabrera Danubio Ativo 113 / 104 40% 1 07.10.2027 -
Nicolás Heiz Maipú Ativo 114 / 107 40% 2 04.10.2027 -
Agustín Gallo Tristán Suárez Ativo 116 / 112 40% 3 29.09.2027 -
Nahuel Soria Oriental Ativo 110 / 94 40% 3 29.09.2027 -
Chinedu Onyinjekwu Bayelsa United Ativo 89 / 96 40% 2 27.09.2027 -
Okardi Inikurogha Bayelsa United Ativo 88 / 79 40% 1 25.09.2027 -
Agustín Paz Progreso Ativo 120 / 105 40% 1 24.09.2027 -
Santiago Apa All Boys Ativo 104 / 102 40% 1 23.09.2027 -
Joaquín Zeballos Wanderers Ativo 112 / 109 40% 1 20.09.2027 -
Brian Fernández Banfield Ativo 113 / 100 40% 2 16.09.2027 -
Facundo de León Progreso Ativo 100 / 107 40% 1 13.09.2027 -
Misael Sosa Godoy Cruz Ativo 120 / 110 40% 1 06.09.2027 -
Augusto Berrondo Tristán Suárez Ativo 107 / 103 40% 1 06.09.2027 -
Camillo Tavernelli Arezzo Ativo 127 / 112 40% 8 19.07.2027 -
Louis Appéré Cambridge United Ativo 99 / 116 40% 4 19.07.2027 -
Fabrizio Lora Sporting Cristal Perdido 94 / 90 69% 1 19.07.2027 Aprovar
Robert Mizo Ashanti Gold Ativo 104 / 97 40% 8 09.07.2027 -
César Doy Melgar Ativo 94 / 93 65% 1 28.06.2027 Aprovar
Dale Taylor Blackpool Ativo 108 / 128 40% 2 21.06.2027 -
Simone Mazzocchi Cosenza Ativo 113 / 120 40% 3 21.06.2027 -
Diego Núñez Melgar Ativo 84 / 79 65% 1 21.06.2027 Aprovar
Bojan Radulović Huddersfield Town Ativo 128 / 127 40% 4 31.05.2027 -
Davis Keillor-Dunn Wrexham Ativo 122 / 114 40% 2 31.05.2027 -
Lee Bonis Chesterfield Ativo 99 / 98 40% 4 31.05.2027 -
Stephen Humphrys Bradford City Ativo 102 / 95 40% 4 27.05.2027 -
Iwan Morgan Grimsby Town Ativo 105 / 120 40% 7 26.05.2027 -
Kelly Saravanan Salford City Ativo 106 / 97 40% 5 26.05.2027 -
Lewis McCann Fleetwood Town Ativo 105 / 99 40% 7 26.05.2027 -
Bismark Asante Ashanti Gold Ativo 91 / 77 40% 4 24.05.2027 -
Alassana Jatta Notts County Ativo 103 / 110 40% 4 23.05.2027 -
Bernat Guiu Virtus Entella Ativo 112 / 120 40% 2 23.05.2027 -
Ekain Orobengoa Real Sociedad Ativo 112 / 101 40% 4 19.05.2027 -
Malik Mothersille Stockport County Ativo 126 / 103 40% 1 19.05.2027 Mais informações
Jayden Wareham Barnet Ativo 106 / 104 40% 5 18.05.2027 -
Josh Koroma Leyton Orient Ativo 102 / 117 40% 1 16.05.2027 -
Sam Nombe Milton Keynes Dons Ativo 109 / 122 40% 2 15.05.2027 -
Niall Ennis Blackpool Ativo 124 / 119 40% 1 15.05.2027 -
Matteo Rover Reggiana Ativo 110 / 127 40% 1 14.05.2027 -
Lamine Guèye Barrow AFC Ativo 116 / 119 40% 2 13.05.2027 -
Mattia Iori Lumezzane Ativo 109 / 97 40% 1 13.05.2027 -
Kwame Opoku Asante Kotoko Ativo 90 / 85 40% 3 12.05.2027 -
Fortune Bassey Djoliba Ativo 111 / 112 40% 4 09.05.2027 -
Harry Leonard Peterborough United Ativo 113 / 126 40% 6 09.05.2027 -
Marcus Browne AFC Wimbledon Ativo 100 / 109 40% 2 07.05.2027 -
Christian Saydee Wigan Athletic Ativo 111 / 124 40% 1 07.05.2027 -
Francesco Petito Dolomiti Bellunesi Ativo 94 / 91 40% 1 04.05.2027 -
Marco Tumminello Benevento Ativo 109 / 111 40% 3 29.04.2027 -
Will Evans Mansfield Town Ativo 94 / 85 40% 2 29.04.2027 -
Michele Emmausso Cosenza Ativo 113 / 115 40% 1 24.04.2027 -
Jaze Kabia Grimsby Town Ativo 86 / 102 40% 1 24.04.2027 -
Danyil Alefirenko Chornomorets Ativo 106 / 108 40% 3 23.04.2027 -
Oleksii Hutsuliak Polissia Ativo 121 / 111 40% 1 21.04.2027 -
Chinedu Geoffrey Krylya Sovetov Ativo 125 / 118 40% 4 20.04.2027 -
Friday Ubong Ashanti Gold Ativo 113 / 87 40% 3 20.04.2027 -
Matthew Dennis Notts County Ativo 94 / 99 40% 2 20.04.2027 -
Vyacheslav Grulev Nizhniy Novgorod Ativo 108 / 103 40% 3 18.04.2027 -
Fabrizio Cavegn Bristol Rovers Ativo 113 / 111 40% 1 18.04.2027 -
Luca Fabrizi Pianese Ativo 100 / 93 40% 1 14.04.2027 -
Pedro Marques Apollon Ativo 115 / 95 40% 1 14.04.2027 -
Giacomo Zecca Torres Ativo 97 / 102 40% 3 13.04.2027 -
Andrea Mattioli Arzignano Ativo 105 / 89 40% 1 13.04.2027 -
José Martínes CSKA 1948 Ativo 106 / 105 40% 2 12.04.2027 -
Lorenzo Di Stefano Torres Ativo 119 / 117 40% 2 10.04.2027 -
Tenton Yenne Baltika Ativo 100 / 105 40% 1 02.04.2027 -
Isaac Essien WAFA Ativo 109 / 88 40% 5 30.03.2027 -
Dara Costelloe Wigan Athletic Ativo 88 / 94 40% 1 30.03.2027 -
Marco Da Graca Novara Ativo 105 / 119 40% 1 30.03.2027 -
Promise Omochere Bristol Rovers Ativo 86 / 92 40% 2 24.03.2027 -
Dmitry Tsypchenko Torpedo Moscow Ativo 112 / 101 40% 2 19.03.2027 -
Gladson Paintsil Wa All Stars Ativo 84 / 106 40% 5 18.03.2027 -
Berna CSKA 1948 Ativo 111 / 124 40% 2 17.03.2027 -
Kamran Aliev SKA Khabarovsk Ativo 97 / 101 40% 1 17.03.2027 -
Calum Kavanagh Oldham Athletic Ativo 89 / 105 40% 1 15.03.2027 -
Emanuele Schimmenti Potenza Ativo 122 / 123 40% 1 10.03.2027 -
Ihor Krasnopir Polissia Ativo 127 / 118 40% 2 05.03.2027 -
Mikhail Ignatov Sochi Ativo 101 / 116 40% 1 03.03.2027 -
Lorent Tolaj Plymouth Argyle Ativo 117 / 111 40% 1 19.02.2027 -
Tedi Cara LNZ Ativo 110 / 123 40% 2 18.02.2027 -
Papa Ndiaga Yade Oleksandriya Ativo 104 / 120 40% 1 16.02.2027 -
Jonathan Gyan Liberty Professionals Ativo 84 / 81 40% 1 07.02.2027 -
Leo Castledine Middlesbrough Ativo 123 / 118 40% 1 06.02.2027 -
Yurii Klymchuk Kolos Ativo 108 / 102 40% 1 04.02.2027 -
Joel Fameyeh Puskas Akademia Ativo 117 / 123 40% 1 06.01.2027 -
Milán Tóth Vasas Ativo 100 / 110 40% 1 28.12.2026 -
Eren Aydın Zira Ativo 93 / 103 40% 2 01.12.2026 -
Nicolás Contín MFK Ruzomberok Ativo 112 / 124 40% 5 27.11.2026 -
Job Ochieng Real Sociedad Ativo 103 / 106 40% 3 27.11.2026 -
Dániel Lukács Puskas Akademia Ativo 125 / 94 40% 1 25.11.2026 -
Peter Christiansen Viking Ativo 122 / 123 40% 2 19.11.2026 -
Krisztofer Horváth Ujpest Ativo 104 / 118 40% 1 19.11.2026 -
Jonás Luna Santa Clara Ativo 125 / 110 40% 5 15.11.2026 -
Elias Hoff Melkersen Stromsgodset Ativo 100 / 118 40% 1 14.11.2026 -
Sergio Riffo NK Zavrc Ativo 84 / 93 40% 1 11.11.2026 -
Agustín Fernández NK Zavrc Ativo 101 / 98 40% 1 09.11.2026 -
Ruben van Bommel Ferencvaros Ativo 145 / 119 40% 1 09.11.2026 -
Gaspar Duarte Rosario Central Ativo 124 / 109 40% 1 05.11.2026 -
Alejandro Viniegra Fehervar Ativo 91 / 91 40% 1 04.11.2026 -
Nikolay Obolskiy Córdoba Ativo 106 / 107 40% 2 02.11.2026 -
Hansel Zapata Botev Plovdiv Ativo 109 / 102 40% 3 31.10.2026 -
Daniel Karlsbakk Sarpsborg 08 Ativo 120 / 141 40% 1 28.10.2026 -
Kristian Eriksen Molde Ativo 139 / 138 40% 1 24.10.2026 -
Marcelo Torres Gimnasia La Plata Ativo 128 / 115 40% 4 18.10.2026 -
Tomás Orqueida Mattersburg Ativo 112 / 93 40% 1 18.10.2026 -
Axel Pérez NK Domzale Ativo 90 / 95 40% 1 18.10.2026 -
José Rivas Gamboa Trujillanos Ativo 104 / 99 40% 1 16.10.2026 -
José Balza Deportivo Tachira Ativo 110 / 100 40% 3 15.10.2026 -
Tomás Romero Unión de Santa Fe Ativo 98 / 112 40% 2 15.10.2026 -
Ronaldo Peña Deportivo Lara Ativo 102 / 113 40% 2 14.10.2026 -
Andreas Gruber DAC Dunajska Streda Ativo 105 / 125 40% 1 13.10.2026 -
Denzel Jubitana Neftchi Ativo 109 / 129 40% 2 11.10.2026 -
Elías Ovelar Dinamo Brest Ativo 96 / 87 40% 1 08.10.2026 -
Gabriel Jesus Barcelona Ativo 156 / 145 40% 3 07.10.2026 -
Junior Paredes Trujillanos Ativo 110 / 103 40% 1 05.10.2026 -
Andreas Helmersen Bodo/Glimt Ativo 133 / 127 40% 2 29.09.2026 -
Leandro Romano Ismaily Ativo 85 / 100 40% 1 28.09.2026 -
Jeriel De Santis Caracas Ativo 107 / 112 40% 2 26.09.2026 -
Fabricio Oviedo Rosario Central Ativo 111 / 113 40% 1 26.09.2026 -
Domingo Ortíz Arda Ativo 97 / 79 40% 1 23.09.2026 -
Genaro Rossi San Martín SJ Ativo 116 / 117 40% 1 22.09.2026 -
Ramiro Ruiz Rodríguez Atlético Tucumán Ativo 112 / 115 40% 1 18.09.2026 -
Joseph Atule Barau Ativo 104 / 81 40% 1 15.09.2026 -
Mauricio Márquez Caracas Ativo 94 / 107 40% 2 14.09.2026 -
Carlos Guerreño Slavia Sofia Ativo 105 / 96 40% 2 13.09.2026 -
Luka Kurtovic NK Domzale Ativo 115 / 136 40% 1 13.09.2026 -
Thomas Oliveri Defensa y Justicia Ativo 89 / 90 40% 1 12.09.2026 -
Alan Cisnero Shukura Ativo 89 / 108 40% 1 10.09.2026 -
Ronny Maza Aragua Ativo 100 / 106 40% 1 08.09.2026 -
Santiago de Ossa Botev Plovdiv Ativo 92 / 105 40% 1 02.09.2026 -
Kwadwo Duah Ludogorets Ativo 123 / 132 40% 1 25.08.2026 -
Alejandro Aquino Valerenga Ativo 82 / 104 40% 1 24.08.2026 -
Andrés Molinas Alashkert Ativo 104 / 107 40% 1 22.08.2026 -
Deyman Cortés Botev Plovdiv Ativo 78 / 100 40% 1 21.08.2026 -
Ignacio Giacinti Patronato Ativo 88 / 86 40% 1 18.08.2026 -
Gonzalo Tapia Palestino Ativo 95 / 98 40% 1 15.08.2026 -
Edixon Mena Ventspils Ativo 94 / 84 40% 1 14.08.2026 -
Ignacio Sabatini Gimnasia y Esgrima Ativo 102 / 113 40% 1 14.08.2026 -
Lucas Bruera Carabobo Ativo 122 / 123 40% 1 10.08.2026 -
Jorge Graterol Deportivo Lara Ativo 89 / 87 40% 1 09.08.2026 -
Héctor Espínola Caracas Ativo 109 / 112 40% 1 08.08.2026 -
Mauro Smarra Deportivo Riestra Ativo 94 / 102 40% 1 05.08.2026 -
Christian Larotonda Caracas Ativo 117 / 104 40% 1 05.08.2026 -
Javi Moreno Albacete Ativo 104 / 110 40% 1 05.08.2026 -
Lucas Souto Defensa y Justicia Ativo 126 / 130 40% 1 03.08.2026 -
Pedro Silva Torrejón Gimnasia La Plata Ativo 111 / 109 40% 1 03.08.2026 -
Jáder Quiñónes Once Caldas Ativo 114 / 114 40% 1 02.08.2026 -
Alexander González Boston River Ativo 106 / 111 40% 1 01.08.2026 -
Munir Albacete Ativo 110 / 133 40% 1 01.08.2026 -